Item Display Status Humidity-temperature Sensor

Elevation Above Sea Level: 3 m

 

Deployed Sensor

  • Serial Number: 20351198
  • NDBC Property Number: 43296
  • Start Date: 3/30/2020 (09:50:46 Z)
  • End Date: Currently Active
Relative Humidity [%]     6 entries per hour
Showing data from 7/24/2021 (10:00:00 Z) to 7/23/2021 (00:00:01 Z)
Previous Next [ Day | 3-Days | 7-Days ]
First Last
Prev [ Day | 3-Days | 7-Days ] Next
First Last

Start Time:     :
End Time:     :     
Time (in GMT) :00 :50 :40 :30 :20 :10
Previous Next [ Day | 3-Days | 7-Days ]
First Last
Prev [ Day | 3-Days | 7-Days ] Next
First Last


123 => good data
MM => data is determined as missing
-- => data not received/configured
Back to Top Back to Top
7/24/2021 10:00 to 9:10 90.50 91.16 91.25 89.98 90.54 90.21
7/24/2021 09:00 to 8:10 89.58 88.94 88.75 89.46 90.66 91.27
7/24/2021 08:00 to 7:10 91.58 91.60 92.89 92.93 91.52 92.01
7/24/2021 07:00 to 6:10 93.30 92.39 90.95 90.71 90.71 90.60
7/24/2021 06:00 to 5:10 90.27 89.67 89.02 88.07 87.82 87.71
7/24/2021 05:00 to 4:10 86.40 86.28 86.38 87.86 88.65 89.13
7/24/2021 04:00 to 3:10 89.42 89.94 90.25 89.79 89.25 88.77
7/24/2021 03:00 to 2:10 88.94 88.73 89.87 89.58 89.25 89.46
7/24/2021 02:00 to 1:10 89.08 88.67 90.41 91.16 90.75 90.33
7/24/2021 01:00 to 0:10 89.79 89.13 88.73 88.56 88.48 89.17
7/24/2021 00:00 to 23:10 88.88 88.81 88.40 88.65 88.59 89.33
7/23/2021 23:00 to 22:10 89.65 89.60 88.73 88.32 87.84 87.07
7/23/2021 22:00 to 21:10 86.01 85.26 84.49 84.30 85.01 86.28
7/23/2021 21:00 to 20:10 88.38 88.67 88.46 88.17 88.40 88.27
7/23/2021 20:00 to 19:10 88.46 87.94 87.50 87.84 87.50 87.82
7/23/2021 19:00 to 18:10 88.11 88.00 87.38 87.86 90.27 90.62
7/23/2021 18:00 to 17:10 89.62 89.73 89.56 89.87 89.71 89.42
7/23/2021 17:00 to 16:10 89.21 89.21 89.79 89.73 89.33 88.40
7/23/2021 16:00 to 15:10 88.65 88.19 88.23 87.75 88.04 88.59
7/23/2021 15:00 to 14:10 88.83 88.46 88.15 88.23 88.27 88.67
7/23/2021 14:00 to 13:10 89.35 89.29 88.75 88.32 87.61 87.34
7/23/2021 13:00 to 12:10 87.55 87.38 88.07 87.80 87.73 88.02
7/23/2021 12:00 to 11:10 87.42 87.50 86.69 86.92 86.86 87.05
7/23/2021 11:00 to 10:10 86.86 86.55 86.65 88.02 88.61 87.82
7/23/2021 10:00 to 9:10 88.46 88.86 88.75 89.38 89.42 88.88
7/23/2021 09:00 to 8:10 88.69 89.35 89.58 89.35 88.86 88.88
7/23/2021 08:00 to 7:10 88.94 88.48 88.38 88.21 88.98 88.46
7/23/2021 07:00 to 6:10 88.54 88.27 88.27 88.19 87.44 87.75
7/23/2021 06:00 to 5:10 87.50 87.38 87.82 88.94 89.81 89.44
7/23/2021 05:00 to 4:10 88.48 88.25 87.69 88.92 88.09 87.59
7/23/2021 04:00 to 3:10 87.07 86.82 86.47 86.53 86.51 86.36
7/23/2021 03:00 to 2:10 86.17 86.42 86.47 86.88 86.44 86.67
7/23/2021 02:00 to 1:10 86.96 86.36 87.46 87.46 86.34 85.80
7/23/2021 01:00 to 0:10 85.57 83.97 83.66 82.72 83.97 83.56

 

 

 

Air Temperature [°C]     6 entries per hour
Showing data from 7/24/2021 (10:00:00 Z) to 7/23/2021 (00:00:01 Z)
Previous Next [ Day | 3-Days | 7-Days ]
First Last
Prev [ Day | 3-Days | 7-Days ] Next
First Last

Start Time:     :
End Time:     :     
Time (in GMT) :00 :50 :40 :30 :20 :10
Previous Next [ Day | 3-Days | 7-Days ]
First Last
Prev [ Day | 3-Days | 7-Days ] Next
First Last


123 => good data
MM => data is determined as missing
-- => data not received/configured
Back to Top Back to Top
7/24/2021 10:00 to 9:10 23.74 23.35 23.88 23.94 24.03 24.07
7/24/2021 09:00 to 8:10 23.92 24.06 24.13 23.73 23.72 23.75
7/24/2021 08:00 to 7:10 23.68 23.37 23.34 23.51 23.98 23.43
7/24/2021 07:00 to 6:10 23.19 23.70 24.12 24.10 24.07 24.10
7/24/2021 06:00 to 5:10 24.25 24.36 24.46 24.37 24.30 24.56
7/24/2021 05:00 to 4:10 24.61 24.53 24.40 24.44 24.39 24.31
7/24/2021 04:00 to 3:10 24.24 24.20 24.22 24.24 24.14 24.16
7/24/2021 03:00 to 2:10 24.14 24.09 24.23 24.26 24.13 24.18
7/24/2021 02:00 to 1:10 24.21 24.07 24.12 24.13 24.19 24.22
7/24/2021 01:00 to 0:10 24.23 24.24 24.19 24.23 24.22 24.26
7/24/2021 00:00 to 23:10 24.38 24.34 24.25 24.21 24.31 24.11
7/23/2021 23:00 to 22:10 24.25 24.34 24.30 24.36 24.31 24.43
7/23/2021 22:00 to 21:10 24.44 24.58 24.47 24.43 24.25 24.31
7/23/2021 21:00 to 20:10 24.39 24.50 24.43 24.34 24.26 24.26
7/23/2021 20:00 to 19:10 24.39 24.36 24.38 24.47 24.49 24.45
7/23/2021 19:00 to 18:10 24.41 24.46 24.19 23.94 23.85 24.25
7/23/2021 18:00 to 17:10 24.36 24.47 24.41 24.29 24.44 24.35
7/23/2021 17:00 to 16:10 24.33 24.19 24.21 24.39 24.38 24.40
7/23/2021 16:00 to 15:10 24.47 24.46 24.35 24.41 24.18 24.22
7/23/2021 15:00 to 14:10 24.20 24.24 24.01 24.13 23.96 24.08
7/23/2021 14:00 to 13:10 24.24 24.13 24.34 24.23 24.20 24.21
7/23/2021 13:00 to 12:10 24.21 24.15 24.17 24.24 24.12 24.21
7/23/2021 12:00 to 11:10 24.14 24.28 24.23 24.11 24.23 24.22
7/23/2021 11:00 to 10:10 24.22 24.29 24.09 24.08 24.26 24.20
7/23/2021 10:00 to 9:10 24.07 24.21 24.21 24.25 24.33 24.23
7/23/2021 09:00 to 8:10 24.22 24.19 24.36 24.21 24.26 24.27
7/23/2021 08:00 to 7:10 24.22 24.23 24.34 24.16 24.28 24.27
7/23/2021 07:00 to 6:10 24.14 24.24 24.20 24.32 24.12 24.27
7/23/2021 06:00 to 5:10 24.30 24.30 24.16 24.12 24.29 24.26
7/23/2021 05:00 to 4:10 24.10 24.12 24.04 23.83 24.10 24.22
7/23/2021 04:00 to 3:10 24.25 24.33 24.15 24.18 24.25 24.28
7/23/2021 03:00 to 2:10 24.30 24.31 24.28 24.36 24.45 24.34
7/23/2021 02:00 to 1:10 24.43 24.36 24.40 24.41 24.30 24.21
7/23/2021 01:00 to 0:10 24.44 24.42 24.53 24.32 24.52 24.47